sensor_id;sensor_type;location;lat;lon;timestamp;P1;durP1;ratioP1;P2;durP2;ratioP2
59681;SDS011;45548;39.530;-9.118;2022-07-24T07:13:35;16.17;;;6.80;;
59681;SDS011;45548;39.530;-9.118;2022-07-24T07:16:01;18.77;;;7.22;;
59681;SDS011;45548;39.530;-9.118;2022-07-24T07:18:27;15.13;;;6.82;;
59681;SDS011;45548;39.530;-9.118;2022-07-24T07:20:53;17.83;;;7.68;;
59681;SDS011;45548;39.530;-9.118;2022-07-24T07:23:22;16.30;;;6.82;;
59681;SDS011;45548;39.530;-9.118;2022-07-24T07:25:49;14.73;;;5.65;;
59681;SDS011;45548;39.530;-9.118;2022-07-24T07:28:14;19.85;;;6.28;;
59681;SDS011;45548;39.530;-9.118;2022-07-24T07:30:40;15.90;;;4.95;;
59681;SDS011;45548;39.530;-9.118;2022-07-24T07:33:06;14.07;;;5.85;;
59681;SDS011;45548;39.530;-9.118;2022-07-24T07:35:31;15.45;;;5.45;;
59681;SDS011;45548;39.530;-9.118;2022-07-24T07:37:57;15.80;;;5.95;;
59681;SDS011;45548;39.530;-9.118;2022-07-24T07:40:24;16.95;;;5.07;;
59681;SDS011;45548;39.530;-9.118;2022-07-24T07:42:50;14.88;;;5.97;;
59681;SDS011;45548;39.530;-9.118;2022-07-24T07:45:15;17.65;;;6.57;;
59681;SDS011;45548;39.530;-9.118;2022-07-24T07:47:41;17.10;;;5.68;;
59681;SDS011;45548;39.530;-9.118;2022-07-24T07:50:07;16.60;;;5.20;;
59681;SDS011;45548;39.530;-9.118;2022-07-24T07:52:33;16.38;;;5.20;;
59681;SDS011;45548;39.530;-9.118;2022-07-24T07:54:59;16.88;;;5.20;;
59681;SDS011;45548;39.530;-9.118;2022-07-24T07:57:25;13.48;;;4.78;;
59681;SDS011;45548;39.530;-9.118;2022-07-24T07:59:50;16.33;;;5.20;;
59681;SDS011;45548;39.530;-9.118;2022-07-24T08:02:16;15.82;;;4.30;;
59681;SDS011;45548;39.530;-9.118;2022-07-24T08:04:41;16.40;;;4.60;;
59681;SDS011;45548;39.530;-9.118;2022-07-24T08:07:07;17.35;;;5.38;;
59681;SDS011;45548;39.530;-9.118;2022-07-24T08:09:32;15.32;;;4.45;;
59681;SDS011;45548;39.530;-9.118;2022-07-24T08:11:58;12.80;;;4.97;;
59681;SDS011;45548;39.530;-9.118;2022-07-24T08:14:24;17.77;;;4.70;;
59681;SDS011;45548;39.530;-9.118;2022-07-24T08:16:49;14.52;;;4.53;;
59681;SDS011;45548;39.530;-9.118;2022-07-24T08:19:15;13.77;;;4.45;;
59681;SDS011;45548;39.530;-9.118;2022-07-24T08:21:40;16.00;;;4.85;;
59681;SDS011;45548;39.530;-9.118;2022-07-24T08:24:06;15.50;;;4.63;;
59681;SDS011;45548;39.530;-9.118;2022-07-24T08:26:32;16.45;;;5.05;;
59681;SDS011;45548;39.530;-9.118;2022-07-24T08:28:58;14.50;;;4.15;;
59681;SDS011;45548;39.530;-9.118;2022-07-24T08:31:26;14.38;;;5.07;;
59681;SDS011;45548;39.530;-9.118;2022-07-24T08:33:52;12.23;;;4.15;;
59681;SDS011;45548;39.530;-9.118;2022-07-24T08:36:18;13.50;;;4.22;;
59681;SDS011;45548;39.530;-9.118;2022-07-24T08:38:43;14.80;;;4.55;;
59681;SDS011;45548;39.530;-9.118;2022-07-24T08:41:09;14.43;;;4.10;;
59681;SDS011;45548;39.530;-9.118;2022-07-24T08:43:34;12.82;;;3.97;;
59681;SDS011;45548;39.530;-9.118;2022-07-24T08:46:00;15.50;;;4.57;;
59681;SDS011;45548;39.530;-9.118;2022-07-24T08:48:27;15.48;;;4.40;;
59681;SDS011;45548;39.530;-9.118;2022-07-24T08:50:53;15.10;;;4.63;;
59681;SDS011;45548;39.530;-9.118;2022-07-24T08:53:20;12.30;;;4.50;;
59681;SDS011;45548;39.530;-9.118;2022-07-24T08:55:47;13.50;;;3.88;;
59681;SDS011;45548;39.530;-9.118;2022-07-24T08:58:13;11.80;;;4.53;;
59681;SDS011;45548;39.530;-9.118;2022-07-24T09:00:38;12.65;;;3.78;;
59681;SDS011;45548;39.530;-9.118;2022-07-24T09:03:04;10.75;;;3.67;;
59681;SDS011;45548;39.530;-9.118;2022-07-24T09:05:30;13.63;;;4.53;;
59681;SDS011;45548;39.530;-9.118;2022-07-24T09:08:08;11.93;;;3.50;;
59681;SDS011;45548;39.530;-9.118;2022-07-24T09:10:36;12.25;;;4.25;;
59681;SDS011;45548;39.530;-9.118;2022-07-24T09:13:12;12.05;;;3.95;;
59681;SDS011;45548;39.530;-9.118;2022-07-24T09:15:47;9.55;;;3.45;;
59681;SDS011;45548;39.530;-9.118;2022-07-24T09:18:29;11.95;;;3.60;;
59681;SDS011;45548;39.530;-9.118;2022-07-24T09:20:57;11.38;;;3.33;;
59681;SDS011;45548;39.530;-9.118;2022-07-24T09:23:23;10.25;;;3.67;;
59681;SDS011;45548;39.530;-9.118;2022-07-24T09:25:53;15.70;;;4.45;;
59681;SDS011;45548;39.530;-9.118;2022-07-24T09:28:19;9.82;;;3.83;;
59681;SDS011;45548;39.530;-9.118;2022-07-24T09:30:46;12.88;;;4.45;;
59681;SDS011;45548;39.530;-9.118;2022-07-24T09:35:39;9.93;;;3.53;;
59681;SDS011;45548;39.530;-9.118;2022-07-24T09:38:12;11.57;;;4.00;;
59681;SDS011;45548;39.530;-9.118;2022-07-24T09:40:41;10.35;;;3.88;;
59681;SDS011;45548;39.530;-9.118;2022-07-24T09:43:16;12.40;;;4.07;;
59681;SDS011;45548;39.530;-9.118;2022-07-24T09:48:31;11.70;;;3.00;;
59681;SDS011;45548;39.530;-9.118;2022-07-24T09:50:59;10.75;;;4.05;;
59681;SDS011;45548;39.530;-9.118;2022-07-24T09:53:28;11.05;;;3.53;;
59681;SDS011;45548;39.530;-9.118;2022-07-24T09:56:04;10.68;;;3.58;;
59681;SDS011;45548;39.530;-9.118;2022-07-24T10:01:10;11.45;;;3.38;;
59681;SDS011;45548;39.530;-9.118;2022-07-24T10:03:37;12.13;;;3.75;;
59681;SDS011;45548;39.530;-9.118;2022-07-24T10:06:05;9.02;;;3.30;;
59681;SDS011;45548;39.530;-9.118;2022-07-24T10:08:33;13.82;;;3.60;;
59681;SDS011;45548;39.530;-9.118;2022-07-24T10:10:59;13.15;;;3.75;;
59681;SDS011;45548;39.530;-9.118;2022-07-24T10:13:25;11.02;;;3.60;;
59681;SDS011;45548;39.530;-9.118;2022-07-24T10:21:47;7.03;;;3.00;;
59681;SDS011;45548;39.530;-9.118;2022-07-24T10:24:25;10.85;;;3.42;;
59681;SDS011;45548;39.530;-9.118;2022-07-24T10:27:06;8.55;;;3.30;;
59681;SDS011;45548;39.530;-9.118;2022-07-24T10:29:47;9.98;;;2.92;;
59681;SDS011;45548;39.530;-9.118;2022-07-24T10:32:13;10.48;;;3.42;;
59681;SDS011;45548;39.530;-9.118;2022-07-24T10:45:30;12.85;;;3.67;;
59681;SDS011;45548;39.530;-9.118;2022-07-24T10:47:56;12.27;;;3.92;;
59681;SDS011;45548;39.530;-9.118;2022-07-24T10:50:22;9.20;;;3.17;;
59681;SDS011;45548;39.530;-9.118;2022-07-24T10:52:48;9.75;;;3.15;;
59681;SDS011;45548;39.530;-9.118;2022-07-24T10:55:25;12.70;;;3.63;;
59681;SDS011;45548;39.530;-9.118;2022-07-24T10:58:02;12.63;;;3.95;;
59681;SDS011;45548;39.530;-9.118;2022-07-24T11:00:33;9.85;;;3.15;;
59681;SDS011;45548;39.530;-9.118;2022-07-24T11:08:54;11.27;;;3.67;;
59681;SDS011;45548;39.530;-9.118;2022-07-24T11:11:19;11.80;;;3.30;;
59681;SDS011;45548;39.530;-9.118;2022-07-24T11:13:53;15.05;;;4.03;;
59681;SDS011;45548;39.530;-9.118;2022-07-24T11:16:23;9.23;;;3.10;;
59681;SDS011;45548;39.530;-9.118;2022-07-24T11:21:28;10.88;;;3.08;;
59681;SDS011;45548;39.530;-9.118;2022-07-24T11:29:15;11.55;;;3.78;;
59681;SDS011;45548;39.530;-9.118;2022-07-24T11:31:48;14.45;;;3.70;;
59681;SDS011;45548;39.530;-9.118;2022-07-24T11:34:15;11.85;;;2.90;;
59681;SDS011;45548;39.530;-9.118;2022-07-24T11:36:47;10.77;;;3.25;;
59681;SDS011;45548;39.530;-9.118;2022-07-24T11:39:15;9.20;;;3.47;;
59681;SDS011;45548;39.530;-9.118;2022-07-24T11:41:48;10.27;;;3.55;;
59681;SDS011;45548;39.530;-9.118;2022-07-24T11:44:22;10.15;;;3.45;;
59681;SDS011;45548;39.530;-9.118;2022-07-24T11:46:49;11.48;;;2.65;;
59681;SDS011;45548;39.530;-9.118;2022-07-24T11:49:15;9.57;;;2.92;;
59681;SDS011;45548;39.530;-9.118;2022-07-24T11:51:48;21.75;;;14.48;;
59681;SDS011;45548;39.530;-9.118;2022-07-24T11:54:25;8.65;;;3.47;;
59681;SDS011;45548;39.530;-9.118;2022-07-24T11:56:52;8.55;;;3.08;;
59681;SDS011;45548;39.530;-9.118;2022-07-24T11:59:27;10.93;;;3.55;;
59681;SDS011;45548;39.530;-9.118;2022-07-24T12:02:06;9.52;;;3.22;;
59681;SDS011;45548;39.530;-9.118;2022-07-24T12:04:34;11.65;;;3.20;;
59681;SDS011;45548;39.530;-9.118;2022-07-24T12:07:05;10.80;;;3.33;;
59681;SDS011;45548;39.530;-9.118;2022-07-24T12:09:31;10.38;;;3.58;;
59681;SDS011;45548;39.530;-9.118;2022-07-24T12:11:57;9.90;;;2.70;;
59681;SDS011;45548;39.530;-9.118;2022-07-24T12:14:23;16.25;;;3.60;;
59681;SDS011;45548;39.530;-9.118;2022-07-24T12:16:53;11.93;;;4.07;;
59681;SDS011;45548;39.530;-9.118;2022-07-24T12:19:20;9.48;;;3.38;;
59681;SDS011;45548;39.530;-9.118;2022-07-24T12:21:48;7.47;;;2.78;;
59681;SDS011;45548;39.530;-9.118;2022-07-24T12:24:19;11.10;;;4.07;;
59681;SDS011;45548;39.530;-9.118;2022-07-24T12:26:52;9.48;;;3.13;;
59681;SDS011;45548;39.530;-9.118;2022-07-24T12:29:20;9.50;;;2.67;;
59681;SDS011;45548;39.530;-9.118;2022-07-24T12:31:46;8.65;;;2.80;;
59681;SDS011;45548;39.530;-9.118;2022-07-24T12:34:12;8.32;;;3.00;;
59681;SDS011;45548;39.530;-9.118;2022-07-24T12:36:38;11.27;;;2.53;;
59681;SDS011;45548;39.530;-9.118;2022-07-24T12:39:06;9.82;;;3.13;;
59681;SDS011;45548;39.530;-9.118;2022-07-24T12:41:39;7.20;;;2.75;;
59681;SDS011;45548;39.530;-9.118;2022-07-24T12:44:07;8.02;;;2.67;;
59681;SDS011;45548;39.530;-9.118;2022-07-24T12:49:02;7.55;;;2.70;;
59681;SDS011;45548;39.530;-9.118;2022-07-24T12:56:47;10.77;;;2.63;;
59681;SDS011;45548;39.530;-9.118;2022-07-24T12:59:48;9.82;;;3.30;;
59681;SDS011;45548;39.530;-9.118;2022-07-24T13:02:10;11.65;;;2.95;;
59681;SDS011;45548;39.530;-9.118;2022-07-24T13:04:41;8.60;;;2.67;;
59681;SDS011;45548;39.530;-9.118;2022-07-24T13:07:07;8.13;;;2.50;;
59681;SDS011;45548;39.530;-9.118;2022-07-24T13:09:34;9.45;;;2.65;;
59681;SDS011;45548;39.530;-9.118;2022-07-24T13:12:04;10.20;;;2.92;;
59681;SDS011;45548;39.530;-9.118;2022-07-24T13:14:31;10.80;;;3.28;;
59681;SDS011;45548;39.530;-9.118;2022-07-24T13:17:01;8.68;;;2.72;;
59681;SDS011;45548;39.530;-9.118;2022-07-24T13:19:33;7.65;;;2.60;;
59681;SDS011;45548;39.530;-9.118;2022-07-24T13:22:04;10.07;;;3.33;;
59681;SDS011;45548;39.530;-9.118;2022-07-24T13:27:26;10.32;;;2.70;;
59681;SDS011;45548;39.530;-9.118;2022-07-24T13:29:52;12.60;;;3.38;;
59681;SDS011;45548;39.530;-9.118;2022-07-24T13:32:17;8.57;;;2.47;;
59681;SDS011;45548;39.530;-9.118;2022-07-24T13:34:43;9.48;;;2.90;;
59681;SDS011;45548;39.530;-9.118;2022-07-24T13:37:08;11.43;;;2.90;;
59681;SDS011;45548;39.530;-9.118;2022-07-24T13:39:34;9.07;;;2.75;;
59681;SDS011;45548;39.530;-9.118;2022-07-24T13:42:02;9.32;;;2.80;;
59681;SDS011;45548;39.530;-9.118;2022-07-24T13:44:28;8.45;;;2.60;;
59681;SDS011;45548;39.530;-9.118;2022-07-24T13:46:54;7.65;;;2.42;;
59681;SDS011;45548;39.530;-9.118;2022-07-24T13:49:20;8.75;;;2.58;;
59681;SDS011;45548;39.530;-9.118;2022-07-24T13:51:46;7.55;;;2.40;;
59681;SDS011;45548;39.530;-9.118;2022-07-24T13:54:12;7.97;;;2.78;;
59681;SDS011;45548;39.530;-9.118;2022-07-24T13:56:38;6.65;;;2.22;;
59681;SDS011;45548;39.530;-9.118;2022-07-24T13:59:04;11.50;;;2.90;;
59681;SDS011;45548;39.530;-9.118;2022-07-24T14:01:30;9.20;;;2.70;;
59681;SDS011;45548;39.530;-9.118;2022-07-24T14:03:55;7.57;;;2.88;;
59681;SDS011;45548;39.530;-9.118;2022-07-24T14:06:21;8.57;;;2.90;;
59681;SDS011;45548;39.530;-9.118;2022-07-24T14:08:46;8.77;;;3.05;;
59681;SDS011;45548;39.530;-9.118;2022-07-24T14:11:12;8.38;;;2.78;;
59681;SDS011;45548;39.530;-9.118;2022-07-24T14:13:37;12.15;;;3.03;;
59681;SDS011;45548;39.530;-9.118;2022-07-24T14:16:03;7.38;;;2.35;;
59681;SDS011;45548;39.530;-9.118;2022-07-24T14:18:29;11.23;;;3.05;;
59681;SDS011;45548;39.530;-9.118;2022-07-24T14:20:54;10.85;;;2.90;;
59681;SDS011;45548;39.530;-9.118;2022-07-24T14:23:20;8.65;;;2.80;;
59681;SDS011;45548;39.530;-9.118;2022-07-24T14:25:46;10.05;;;2.83;;
59681;SDS011;45548;39.530;-9.118;2022-07-24T14:28:12;8.02;;;2.70;;
59681;SDS011;45548;39.530;-9.118;2022-07-24T14:30:38;10.52;;;2.85;;
59681;SDS011;45548;39.530;-9.118;2022-07-24T14:33:04;13.70;;;3.05;;
59681;SDS011;45548;39.530;-9.118;2022-07-24T14:35:29;11.30;;;3.10;;
59681;SDS011;45548;39.530;-9.118;2022-07-24T14:37:56;7.45;;;2.80;;
59681;SDS011;45548;39.530;-9.118;2022-07-24T14:40:22;9.15;;;2.80;;
59681;SDS011;45548;39.530;-9.118;2022-07-24T14:42:48;13.38;;;3.63;;
59681;SDS011;45548;39.530;-9.118;2022-07-24T14:45:14;13.18;;;2.78;;
59681;SDS011;45548;39.530;-9.118;2022-07-24T14:47:39;8.40;;;2.60;;
59681;SDS011;45548;39.530;-9.118;2022-07-24T14:50:08;8.90;;;2.90;;
59681;SDS011;45548;39.530;-9.118;2022-07-24T14:52:35;10.68;;;3.47;;
59681;SDS011;45548;39.530;-9.118;2022-07-24T14:55:01;9.93;;;3.22;;
59681;SDS011;45548;39.530;-9.118;2022-07-24T14:57:27;9.70;;;2.90;;
59681;SDS011;45548;39.530;-9.118;2022-07-24T14:59:53;7.75;;;2.70;;
59681;SDS011;45548;39.530;-9.118;2022-07-24T15:02:18;8.32;;;2.88;;
59681;SDS011;45548;39.530;-9.118;2022-07-24T15:04:44;6.22;;;2.47;;
59681;SDS011;45548;39.530;-9.118;2022-07-24T15:07:09;10.40;;;2.78;;
59681;SDS011;45548;39.530;-9.118;2022-07-24T15:09:35;9.38;;;3.20;;
59681;SDS011;45548;39.530;-9.118;2022-07-24T15:12:00;10.48;;;3.40;;
59681;SDS011;45548;39.530;-9.118;2022-07-24T15:14:26;10.90;;;3.38;;
59681;SDS011;45548;39.530;-9.118;2022-07-24T15:16:51;10.20;;;2.70;;
59681;SDS011;45548;39.530;-9.118;2022-07-24T15:19:17;12.40;;;3.28;;
59681;SDS011;45548;39.530;-9.118;2022-07-24T15:21:43;14.00;;;3.45;;
59681;SDS011;45548;39.530;-9.118;2022-07-24T15:24:08;8.98;;;3.08;;
59681;SDS011;45548;39.530;-9.118;2022-07-24T15:26:34;9.95;;;3.00;;
59681;SDS011;45548;39.530;-9.118;2022-07-24T15:29:01;10.38;;;3.10;;
59681;SDS011;45548;39.530;-9.118;2022-07-24T15:31:26;9.18;;;2.63;;
59681;SDS011;45548;39.530;-9.118;2022-07-24T15:33:52;9.43;;;2.63;;
59681;SDS011;45548;39.530;-9.118;2022-07-24T15:36:21;8.07;;;2.67;;
59681;SDS011;45548;39.530;-9.118;2022-07-24T15:38:46;9.70;;;3.33;;
59681;SDS011;45548;39.530;-9.118;2022-07-24T15:41:12;8.32;;;2.50;;
59681;SDS011;45548;39.530;-9.118;2022-07-24T15:43:37;12.68;;;3.33;;
59681;SDS011;45548;39.530;-9.118;2022-07-24T15:46:03;11.10;;;3.65;;
59681;SDS011;45548;39.530;-9.118;2022-07-24T15:48:28;14.57;;;3.67;;
59681;SDS011;45548;39.530;-9.118;2022-07-24T15:50:54;8.85;;;2.42;;
59681;SDS011;45548;39.530;-9.118;2022-07-24T15:53:19;8.07;;;2.75;;
59681;SDS011;45548;39.530;-9.118;2022-07-24T15:55:45;11.75;;;3.47;;
59681;SDS011;45548;39.530;-9.118;2022-07-24T15:58:10;6.97;;;3.00;;
59681;SDS011;45548;39.530;-9.118;2022-07-24T16:00:36;9.27;;;2.90;;
59681;SDS011;45548;39.530;-9.118;2022-07-24T16:03:02;14.18;;;3.28;;
59681;SDS011;45548;39.530;-9.118;2022-07-24T16:05:27;9.38;;;3.17;;
59681;SDS011;45548;39.530;-9.118;2022-07-24T16:07:53;9.88;;;3.10;;
59681;SDS011;45548;39.530;-9.118;2022-07-24T16:10:20;8.00;;;3.05;;
59681;SDS011;45548;39.530;-9.118;2022-07-24T16:12:46;8.90;;;2.90;;
59681;SDS011;45548;39.530;-9.118;2022-07-24T16:15:12;9.07;;;3.35;;
59681;SDS011;45548;39.530;-9.118;2022-07-24T16:17:39;9.68;;;2.88;;
59681;SDS011;45548;39.530;-9.118;2022-07-24T16:20:06;10.90;;;3.47;;
59681;SDS011;45548;39.530;-9.118;2022-07-24T16:22:33;13.02;;;3.83;;
59681;SDS011;45548;39.530;-9.118;2022-07-24T16:24:59;9.30;;;3.15;;
59681;SDS011;45548;39.530;-9.118;2022-07-24T16:27:27;7.25;;;2.80;;
59681;SDS011;45548;39.530;-9.118;2022-07-24T16:29:54;10.27;;;3.22;;
59681;SDS011;45548;39.530;-9.118;2022-07-24T16:32:20;8.68;;;2.90;;
59681;SDS011;45548;39.530;-9.118;2022-07-24T16:34:45;12.20;;;3.15;;
59681;SDS011;45548;39.530;-9.118;2022-07-24T16:37:11;10.88;;;3.63;;
59681;SDS011;45548;39.530;-9.118;2022-07-24T16:39:36;6.63;;;2.63;;
59681;SDS011;45548;39.530;-9.118;2022-07-24T16:42:02;8.18;;;2.65;;
59681;SDS011;45548;39.530;-9.118;2022-07-24T16:44:28;10.30;;;3.10;;
59681;SDS011;45548;39.530;-9.118;2022-07-24T16:46:54;6.22;;;2.85;;
59681;SDS011;45548;39.530;-9.118;2022-07-24T16:49:20;8.90;;;3.50;;
59681;SDS011;45548;39.530;-9.118;2022-07-24T16:51:45;11.40;;;3.30;;
59681;SDS011;45548;39.530;-9.118;2022-07-24T16:54:11;10.18;;;3.75;;
59681;SDS011;45548;39.530;-9.118;2022-07-24T16:56:36;9.77;;;3.45;;
59681;SDS011;45548;39.530;-9.118;2022-07-24T16:59:02;10.25;;;2.92;;
59681;SDS011;45548;39.530;-9.118;2022-07-24T17:01:28;9.20;;;2.80;;
59681;SDS011;45548;39.530;-9.118;2022-07-24T17:03:54;7.90;;;3.13;;
59681;SDS011;45548;39.530;-9.118;2022-07-24T17:06:19;7.97;;;3.00;;
59681;SDS011;45548;39.530;-9.118;2022-07-24T17:08:45;10.00;;;3.63;;
59681;SDS011;45548;39.530;-9.118;2022-07-24T17:11:10;8.35;;;3.38;;
59681;SDS011;45548;39.530;-9.118;2022-07-24T17:13:36;10.50;;;3.65;;
59681;SDS011;45548;39.530;-9.118;2022-07-24T17:16:01;16.77;;;4.35;;
59681;SDS011;45548;39.530;-9.118;2022-07-24T17:18:28;10.73;;;3.50;;
59681;SDS011;45548;39.530;-9.118;2022-07-24T17:20:54;9.75;;;3.78;;
59681;SDS011;45548;39.530;-9.118;2022-07-24T17:23:20;11.18;;;4.38;;
59681;SDS011;45548;39.530;-9.118;2022-07-24T17:25:45;11.60;;;4.18;;
59681;SDS011;45548;39.530;-9.118;2022-07-24T17:28:12;12.65;;;4.20;;
59681;SDS011;45548;39.530;-9.118;2022-07-24T17:30:38;11.13;;;4.50;;
59681;SDS011;45548;39.530;-9.118;2022-07-24T17:33:05;12.50;;;4.32;;
59681;SDS011;45548;39.530;-9.118;2022-07-24T17:35:31;14.02;;;4.28;;
59681;SDS011;45548;39.530;-9.118;2022-07-24T17:37:57;9.57;;;4.80;;
59681;SDS011;45548;39.530;-9.118;2022-07-24T17:40:23;12.88;;;4.28;;
59681;SDS011;45548;39.530;-9.118;2022-07-24T17:42:49;9.50;;;3.72;;
59681;SDS011;45548;39.530;-9.118;2022-07-24T17:45:16;11.00;;;3.53;;
59681;SDS011;45548;39.530;-9.118;2022-07-24T17:47:42;7.68;;;3.60;;
59681;SDS011;45548;39.530;-9.118;2022-07-24T17:50:09;8.10;;;3.50;;
59681;SDS011;45548;39.530;-9.118;2022-07-24T17:52:36;12.13;;;4.28;;
59681;SDS011;45548;39.530;-9.118;2022-07-24T17:55:03;8.50;;;3.85;;
59681;SDS011;45548;39.530;-9.118;2022-07-24T17:57:30;10.00;;;4.15;;
59681;SDS011;45548;39.530;-9.118;2022-07-24T17:59:56;8.40;;;4.00;;
59681;SDS011;45548;39.530;-9.118;2022-07-24T18:02:21;11.35;;;3.92;;
59681;SDS011;45548;39.530;-9.118;2022-07-24T18:04:47;8.85;;;3.70;;
59681;SDS011;45548;39.530;-9.118;2022-07-24T18:07:13;7.75;;;3.85;;
59681;SDS011;45548;39.530;-9.118;2022-07-24T18:09:38;11.50;;;4.30;;
59681;SDS011;45548;39.530;-9.118;2022-07-24T18:12:04;9.20;;;3.70;;
59681;SDS011;45548;39.530;-9.118;2022-07-24T18:14:30;10.68;;;4.03;;
59681;SDS011;45548;39.530;-9.118;2022-07-24T18:16:56;10.90;;;3.83;;
59681;SDS011;45548;39.530;-9.118;2022-07-24T18:19:22;9.60;;;3.17;;
59681;SDS011;45548;39.530;-9.118;2022-07-24T18:21:47;10.60;;;4.00;;
59681;SDS011;45548;39.530;-9.118;2022-07-24T18:24:13;10.82;;;3.88;;
59681;SDS011;45548;39.530;-9.118;2022-07-24T18:26:39;8.27;;;3.50;;
59681;SDS011;45548;39.530;-9.118;2022-07-24T18:29:04;8.88;;;3.90;;
59681;SDS011;45548;39.530;-9.118;2022-07-24T18:31:30;10.38;;;3.38;;
59681;SDS011;45548;39.530;-9.118;2022-07-24T18:33:56;9.85;;;3.75;;
59681;SDS011;45548;39.530;-9.118;2022-07-24T18:36:22;8.75;;;3.78;;
59681;SDS011;45548;39.530;-9.118;2022-07-24T18:38:48;10.23;;;4.05;;
59681;SDS011;45548;39.530;-9.118;2022-07-24T18:41:14;12.93;;;3.80;;
59681;SDS011;45548;39.530;-9.118;2022-07-24T18:43:40;10.65;;;3.78;;
59681;SDS011;45548;39.530;-9.118;2022-07-24T18:46:06;9.00;;;3.25;;
59681;SDS011;45548;39.530;-9.118;2022-07-24T18:48:31;11.18;;;3.65;;
59681;SDS011;45548;39.530;-9.118;2022-07-24T18:50:57;10.90;;;3.58;;
59681;SDS011;45548;39.530;-9.118;2022-07-24T18:53:24;8.43;;;3.60;;
59681;SDS011;45548;39.530;-9.118;2022-07-24T18:55:50;9.95;;;3.70;;
59681;SDS011;45548;39.530;-9.118;2022-07-24T18:58:15;12.70;;;3.95;;
59681;SDS011;45548;39.530;-9.118;2022-07-24T19:00:41;12.98;;;4.63;;
59681;SDS011;45548;39.530;-9.118;2022-07-24T19:03:06;11.20;;;4.28;;
59681;SDS011;45548;39.530;-9.118;2022-07-24T19:05:32;10.10;;;4.68;;
59681;SDS011;45548;39.530;-9.118;2022-07-24T19:07:57;8.25;;;3.75;;
59681;SDS011;45548;39.530;-9.118;2022-07-24T19:10:23;12.02;;;4.07;;
59681;SDS011;45548;39.530;-9.118;2022-07-24T19:12:48;11.35;;;4.45;;
59681;SDS011;45548;39.530;-9.118;2022-07-24T19:15:14;8.18;;;3.90;;
59681;SDS011;45548;39.530;-9.118;2022-07-24T19:17:41;11.02;;;4.88;;
59681;SDS011;45548;39.530;-9.118;2022-07-24T19:20:06;14.60;;;5.65;;
59681;SDS011;45548;39.530;-9.118;2022-07-24T19:22:32;13.13;;;5.20;;
59681;SDS011;45548;39.530;-9.118;2022-07-24T19:24:58;12.02;;;4.85;;
59681;SDS011;45548;39.530;-9.118;2022-07-24T19:27:24;9.60;;;4.88;;
59681;SDS011;45548;39.530;-9.118;2022-07-24T19:29:49;13.70;;;5.25;;
59681;SDS011;45548;39.530;-9.118;2022-07-24T19:32:15;12.75;;;5.47;;
59681;SDS011;45548;39.530;-9.118;2022-07-24T19:34:41;13.77;;;5.30;;
59681;SDS011;45548;39.530;-9.118;2022-07-24T19:37:07;10.23;;;5.65;;
59681;SDS011;45548;39.530;-9.118;2022-07-24T19:39:32;12.45;;;4.85;;
59681;SDS011;45548;39.530;-9.118;2022-07-24T19:41:58;11.35;;;4.75;;
59681;SDS011;45548;39.530;-9.118;2022-07-24T19:44:23;12.32;;;5.10;;
59681;SDS011;45548;39.530;-9.118;2022-07-24T19:46:49;13.00;;;4.95;;
59681;SDS011;45548;39.530;-9.118;2022-07-24T19:49:14;9.85;;;5.57;;
59681;SDS011;45548;39.530;-9.118;2022-07-24T19:51:40;15.45;;;5.75;;
59681;SDS011;45548;39.530;-9.118;2022-07-24T19:54:06;15.15;;;6.07;;
59681;SDS011;45548;39.530;-9.118;2022-07-24T19:56:32;13.88;;;6.03;;
59681;SDS011;45548;39.530;-9.118;2022-07-24T19:58:58;12.68;;;5.32;;
59681;SDS011;45548;39.530;-9.118;2022-07-24T20:01:23;14.57;;;6.10;;
59681;SDS011;45548;39.530;-9.118;2022-07-24T20:03:49;12.40;;;5.30;;
59681;SDS011;45548;39.530;-9.118;2022-07-24T20:06:14;13.98;;;5.60;;
59681;SDS011;45548;39.530;-9.118;2022-07-24T20:08:40;8.85;;;5.03;;
59681;SDS011;45548;39.530;-9.118;2022-07-24T20:11:06;15.93;;;5.75;;
59681;SDS011;45548;39.530;-9.118;2022-07-24T20:13:31;17.52;;;5.78;;
59681;SDS011;45548;39.530;-9.118;2022-07-24T20:15:57;14.82;;;6.40;;
59681;SDS011;45548;39.530;-9.118;2022-07-24T20:18:23;18.35;;;6.65;;
59681;SDS011;45548;39.530;-9.118;2022-07-24T20:20:48;17.17;;;5.72;;
59681;SDS011;45548;39.530;-9.118;2022-07-24T20:23:14;17.58;;;6.75;;
59681;SDS011;45548;39.530;-9.118;2022-07-24T20:25:39;20.77;;;7.10;;
59681;SDS011;45548;39.530;-9.118;2022-07-24T20:28:05;23.25;;;6.68;;
59681;SDS011;45548;39.530;-9.118;2022-07-24T20:30:30;22.67;;;7.38;;
59681;SDS011;45548;39.530;-9.118;2022-07-24T20:32:56;20.70;;;7.18;;
59681;SDS011;45548;39.530;-9.118;2022-07-24T20:35:21;20.65;;;7.63;;
59681;SDS011;45548;39.530;-9.118;2022-07-24T20:37:47;26.35;;;8.02;;
59681;SDS011;45548;39.530;-9.118;2022-07-24T20:40:12;21.63;;;7.25;;
59681;SDS011;45548;39.530;-9.118;2022-07-24T20:42:38;34.97;;;8.73;;
59681;SDS011;45548;39.530;-9.118;2022-07-24T20:45:05;22.73;;;8.13;;
59681;SDS011;45548;39.530;-9.118;2022-07-24T20:47:32;23.35;;;7.30;;
59681;SDS011;45548;39.530;-9.118;2022-07-24T20:49:58;22.65;;;8.00;;
59681;SDS011;45548;39.530;-9.118;2022-07-24T20:52:23;18.95;;;7.88;;
59681;SDS011;45548;39.530;-9.118;2022-07-24T20:54:49;23.38;;;7.50;;
59681;SDS011;45548;39.530;-9.118;2022-07-24T20:57:15;24.77;;;7.78;;
59681;SDS011;45548;39.530;-9.118;2022-07-24T20:59:40;21.02;;;7.68;;
59681;SDS011;45548;39.530;-9.118;2022-07-24T21:02:06;24.48;;;7.90;;
59681;SDS011;45548;39.530;-9.118;2022-07-24T21:04:31;25.55;;;8.18;;
59681;SDS011;45548;39.530;-9.118;2022-07-24T21:06:57;21.98;;;7.63;;
59681;SDS011;45548;39.530;-9.118;2022-07-24T21:09:22;20.40;;;6.88;;
59681;SDS011;45548;39.530;-9.118;2022-07-24T21:11:48;22.30;;;7.85;;
59681;SDS011;45548;39.530;-9.118;2022-07-24T21:14:13;22.73;;;7.40;;
59681;SDS011;45548;39.530;-9.118;2022-07-24T21:16:39;18.08;;;7.13;;
59681;SDS011;45548;39.530;-9.118;2022-07-24T21:19:04;25.45;;;8.23;;
59681;SDS011;45548;39.530;-9.118;2022-07-24T21:21:30;20.08;;;7.15;;
59681;SDS011;45548;39.530;-9.118;2022-07-24T21:23:55;26.50;;;7.78;;
59681;SDS011;45548;39.530;-9.118;2022-07-24T21:26:21;20.73;;;6.63;;
59681;SDS011;45548;39.530;-9.118;2022-07-24T21:28:47;23.63;;;7.30;;
59681;SDS011;45548;39.530;-9.118;2022-07-24T21:31:12;23.10;;;7.72;;
59681;SDS011;45548;39.530;-9.118;2022-07-24T21:33:38;21.92;;;7.97;;
59681;SDS011;45548;39.530;-9.118;2022-07-24T21:36:04;23.95;;;9.13;;
59681;SDS011;45548;39.530;-9.118;2022-07-24T21:38:30;17.70;;;6.72;;
59681;SDS011;45548;39.530;-9.118;2022-07-24T21:40:56;22.13;;;7.95;;
59681;SDS011;45548;39.530;-9.118;2022-07-24T21:43:21;15.35;;;6.75;;
59681;SDS011;45548;39.530;-9.118;2022-07-24T21:45:47;23.88;;;7.28;;
59681;SDS011;45548;39.530;-9.118;2022-07-24T21:48:12;18.60;;;6.72;;
59681;SDS011;45548;39.530;-9.118;2022-07-24T21:50:38;25.00;;;7.10;;
59681;SDS011;45548;39.530;-9.118;2022-07-24T21:53:03;19.00;;;6.78;;
59681;SDS011;45548;39.530;-9.118;2022-07-24T21:55:29;22.00;;;6.80;;
59681;SDS011;45548;39.530;-9.118;2022-07-24T21:57:55;29.00;;;8.40;;
59681;SDS011;45548;39.530;-9.118;2022-07-24T22:00:21;25.95;;;8.25;;
59681;SDS011;45548;39.530;-9.118;2022-07-24T22:02:55;21.15;;;7.05;;
59681;SDS011;45548;39.530;-9.118;2022-07-24T22:05:23;13.90;;;5.30;;
59681;SDS011;45548;39.530;-9.118;2022-07-24T22:07:49;16.00;;;5.72;;
59681;SDS011;45548;39.530;-9.118;2022-07-24T22:10:15;6.85;;;4.10;;
59681;SDS011;45548;39.530;-9.118;2022-07-24T22:13:16;9.50;;;4.28;;
59681;SDS011;45548;39.530;-9.118;2022-07-24T22:15:41;12.65;;;4.82;;
59681;SDS011;45548;39.530;-9.118;2022-07-24T22:18:07;11.68;;;5.20;;
59681;SDS011;45548;39.530;-9.118;2022-07-24T22:20:32;17.60;;;6.18;;
59681;SDS011;45548;39.530;-9.118;2022-07-24T22:22:58;16.25;;;5.45;;
